Time;durP1;ratioP1;P1;durP2;ratioP2;P2;SDS_P1;SDS_P2;PMS_P1;PMS_P2;Temp;Humidity;BMP_temperature;BMP_pressure;BME280_temperature;BME280_humidity;BME280_pressure;Samples;Min_cycle;Max_cycle;Signal;HPM_P1;HPM_P2
2024/02/19 00:00:37;;;;;;;0.40;0.40;;;;;;;4.50;100.00;100411.13;5067070;28;20033;-69
2024/02/19 00:03:05;;;;;;;0.40;0.40;;;;;;;4.56;100.00;100421.53;5067261;28;20025;-69
2024/02/19 00:05:30;;;;;;;0.40;0.40;;;;;;;4.56;100.00;100421.53;5067409;28;20561;-69
2024/02/19 00:07:59;;;;;;;0.40;0.40;;;;;;;4.56;100.00;100421.53;5049077;28;20025;-70
2024/02/19 00:10:25;;;;;;;0.50;0.50;;;;;;;4.56;100.00;100426.66;5067054;28;20021;-70
2024/02/19 00:12:51;;;;;;;0.40;0.40;;;;;;;4.54;100.00;100428.34;5067205;28;20090;-69
2024/02/19 00:15:16;;;;;;;0.40;0.40;;;;;;;4.54;100.00;100426.63;5048942;28;20036;-69
2024/02/19 00:17:42;;;;;;;0.40;0.40;;;;;;;4.54;100.00;100423.19;5067207;28;20025;-69
2024/02/19 00:20:07;;;;;;;0.50;0.50;;;;;;;4.49;100.00;100417.13;5066980;28;20051;-69
2024/02/19 00:22:33;;;;;;;0.40;0.40;;;;;;;4.55;100.00;100430.94;5066816;28;20060;-69
2024/02/19 00:24:59;;;;;;;0.50;0.50;;;;;;;4.54;100.00;100426.63;5067157;28;20021;-70
2024/02/19 00:27:25;;;;;;;0.40;0.40;;;;;;;4.50;100.00;100417.16;5067015;28;20021;-69
2024/02/19 00:29:50;;;;;;;0.47;0.47;;;;;;;4.52;100.00;100423.16;5066774;28;20013;-70
2024/02/19 00:32:15;;;;;;;0.47;0.47;;;;;;;4.50;100.00;100418.84;5048928;28;20474;-69
2024/02/19 00:34:44;;;;;;;0.50;0.50;;;;;;;4.50;100.00;100417.16;5048819;28;20036;-69
2024/02/19 00:37:10;;;;;;;0.40;0.40;;;;;;;4.45;100.00;100414.50;5048734;28;20074;-69
2024/02/19 00:39:36;;;;;;;0.50;0.50;;;;;;;4.40;100.00;100405.84;5066757;28;20046;-69
2024/02/19 00:42:02;;;;;;;0.50;0.50;;;;;;;4.37;100.00;100404.91;5048594;28;20092;-71
2024/02/19 00:44:28;;;;;;;0.40;0.40;;;;;;;4.31;100.00;100403.13;5066285;28;20060;-70
2024/02/19 00:46:53;;;;;;;0.40;0.40;;;;;;;4.33;100.00;100415.16;5048619;28;20083;-70
2024/02/19 00:49:19;;;;;;;0.40;0.40;;;;;;;4.34;100.00;100409.16;5048551;28;20056;-71
2024/02/19 00:51:44;;;;;;;0.40;0.40;;;;;;;4.35;100.00;100410.03;5066512;28;20029;-71
2024/02/19 00:54:09;;;;;;;0.40;0.40;;;;;;;4.39;100.00;100411.84;5066411;28;20052;-71
2024/02/19 00:56:37;;;;;;;0.40;0.40;;;;;;;4.42;100.00;100408.44;5065677;28;20029;-71
2024/02/19 00:59:03;;;;;;;0.40;0.40;;;;;;;4.40;100.00;100410.97;5066279;28;20021;-72
2024/02/19 01:01:28;;;;;;;0.50;0.50;;;;;;;4.38;100.00;100401.53;5066507;28;20021;-71
2024/02/19 01:03:54;;;;;;;0.50;0.50;;;;;;;4.36;100.00;100398.06;5066215;28;20120;-70
2024/02/19 01:06:19;;;;;;;0.40;0.40;;;;;;;4.37;100.00;100395.50;5066169;28;20029;-70
2024/02/19 01:08:45;;;;;;;0.43;0.43;;;;;;;4.34;100.00;100393.72;5066075;28;20025;-70
2024/02/19 01:11:10;;;;;;;0.50;0.50;;;;;;;4.35;100.00;100392.03;5065973;28;20017;-69
2024/02/19 01:13:36;;;;;;;0.40;0.40;;;;;;;4.37;100.00;100395.50;5047992;28;20090;-70
2024/02/19 01:16:01;;;;;;;0.50;0.50;;;;;;;4.36;100.00;100391.19;5065668;28;20044;-70
2024/02/19 01:18:27;;;;;;;0.50;0.50;;;;;;;4.36;100.00;100392.91;5065915;28;20036;-70
2024/02/19 01:20:52;;;;;;;0.40;0.40;;;;;;;4.32;100.00;100385.16;5065819;28;20032;-70
2024/02/19 01:23:17;;;;;;;0.47;0.47;;;;;;;4.29;100.00;100385.09;5065828;28;20060;-71
2024/02/19 01:25:43;;;;;;;0.40;0.40;;;;;;;4.22;100.00;100376.41;5065701;28;20029;-70
2024/02/19 01:28:08;;;;;;;0.40;0.40;;;;;;;4.25;100.00;100383.28;5047791;28;20029;-70
2024/02/19 01:30:33;;;;;;;0.40;0.40;;;;;;;4.25;100.00;100380.72;5047383;28;20028;-71
2024/02/19 01:33:01;;;;;;;0.40;0.40;;;;;;;4.17;100.00;100361.75;5065732;28;20032;-70
2024/02/19 01:35:26;;;;;;;0.40;0.40;;;;;;;4.18;100.00;100379.78;5047804;28;20025;-70
2024/02/19 01:37:52;;;;;;;0.50;0.50;;;;;;;4.23;100.00;100377.28;5047575;28;20028;-70
2024/02/19 01:40:18;;;;;;;0.45;0.45;;;;;;;4.20;100.00;100365.22;5065506;28;20206;-69
2024/02/19 01:42:43;;;;;;;0.45;0.45;;;;;;;4.20;100.00;100366.97;5065413;28;20028;-71
2024/02/19 01:45:27;;;;;;;0.43;0.43;;;;;;;4.19;100.00;100371.22;5065229;28;20022;-70
2024/02/19 01:47:54;;;;;;;0.50;0.50;;;;;;;4.19;100.00;100380.63;5065405;28;20032;-70
2024/02/19 01:50:21;;;;;;;0.40;0.40;;;;;;;4.16;100.00;100371.16;5065357;28;20016;-70
2024/02/19 01:52:47;;;;;;;0.50;0.50;;;;;;;4.20;100.00;100370.38;5065381;28;20025;-69
2024/02/19 01:55:13;;;;;;;0.50;0.50;;;;;;;4.22;100.00;100367.81;5065188;28;20016;-70
2024/02/19 01:57:42;;;;;;;0.40;0.40;;;;;;;4.26;100.00;100368.75;5065133;28;20405;-71
2024/02/19 02:00:08;;;;;;;0.40;0.40;;;;;;;4.28;100.00;100375.63;5046920;28;20132;-69
2024/02/19 02:02:34;;;;;;;0.40;0.40;;;;;;;4.28;100.00;100373.06;5064957;28;20453;-70
2024/02/19 02:05:01;;;;;;;0.50;0.50;;;;;;;4.31;100.00;100375.69;5065051;28;20535;-70
2024/02/19 02:07:26;;;;;;;0.50;0.50;;;;;;;4.35;100.00;100386.91;5064374;28;20040;-70
2024/02/19 02:09:53;;;;;;;0.40;0.40;;;;;;;4.31;100.00;100375.69;5047027;28;20013;-70
2024/02/19 02:12:19;;;;;;;0.40;0.40;;;;;;;4.27;100.00;100373.03;5064842;28;20021;-70
2024/02/19 02:14:44;;;;;;;0.40;0.40;;;;;;;4.27;100.00;100375.63;5064695;28;20028;-71
2024/02/19 02:17:10;;;;;;;0.50;0.50;;;;;;;4.27;100.00;100380.75;5065118;28;20029;-70
2024/02/19 02:19:36;;;;;;;0.40;0.40;;;;;;;4.22;100.00;100385.81;5065066;28;20047;-71
2024/02/19 02:22:02;;;;;;;0.50;0.50;;;;;;;4.19;100.00;100384.06;5046843;28;20021;-71
2024/02/19 02:24:28;;;;;;;0.40;0.40;;;;;;;4.15;100.00;100373.72;5046963;28;20047;-71
2024/02/19 02:26:53;;;;;;;0.40;0.40;;;;;;;4.11;100.00;100367.66;5064917;28;20021;-71
2024/02/19 02:29:19;;;;;;;0.40;0.40;;;;;;;4.15;100.00;100377.16;5064826;28;20052;-71
2024/02/19 02:31:44;;;;;;;0.50;0.50;;;;;;;4.12;100.00;100371.94;5064742;28;20025;-71
2024/02/19 02:34:10;;;;;;;0.40;0.40;;;;;;;4.15;100.00;100377.16;5046855;28;20424;-71
2024/02/19 02:36:35;;;;;;;0.50;0.50;;;;;;;4.15;100.00;100374.59;5064804;28;20035;-70
2024/02/19 02:39:00;;;;;;;0.40;0.40;;;;;;;4.14;100.00;100372.84;5046806;28;20032;-70
2024/02/19 02:41:26;;;;;;;0.50;0.50;;;;;;;4.04;100.00;100370.97;5046841;28;20025;-71
2024/02/19 02:43:51;;;;;;;0.50;0.50;;;;;;;4.02;100.00;100372.63;5064662;28;20420;-71
2024/02/19 02:46:16;;;;;;;0.50;0.50;;;;;;;3.97;100.00;100365.72;5064658;28;20033;-70
2024/02/19 02:48:42;;;;;;;0.40;0.40;;;;;;;3.94;100.00;100364.78;5064457;28;20028;-71
2024/02/19 02:51:07;;;;;;;0.40;0.40;;;;;;;3.90;100.00;100352.72;5064423;28;20032;-70
2024/02/19 02:53:33;;;;;;;0.50;0.50;;;;;;;3.87;100.00;100348.38;5064690;28;20025;-71
2024/02/19 02:55:58;;;;;;;0.40;0.40;;;;;;;3.90;100.00;100353.56;5064477;28;20040;-69
2024/02/19 02:58:24;;;;;;;0.40;0.40;;;;;;;3.89;100.00;100354.44;5046129;28;20037;-69
2024/02/19 03:00:49;;;;;;;0.40;0.40;;;;;;;3.91;100.00;100352.75;5064176;28;20429;-69
2024/02/19 03:03:14;;;;;;;0.50;0.50;;;;;;;3.94;100.00;100357.06;5064590;28;20085;-71
2024/02/19 03:05:40;;;;;;;0.40;0.40;;;;;;;3.96;100.00;100361.38;5064188;28;20021;-70
2024/02/19 03:08:07;;;;;;;0.40;0.40;;;;;;;3.83;100.00;100338.91;5046422;28;20075;-70
2024/02/19 03:10:32;;;;;;;0.50;0.50;;;;;;;3.93;100.00;100363.06;5064341;28;20108;-70
2024/02/19 03:12:58;;;;;;;0.40;0.40;;;;;;;3.83;100.00;100346.63;5064404;28;20029;-70
2024/02/19 03:15:23;;;;;;;0.40;0.40;;;;;;;3.81;100.00;100363.69;5045915;28;20021;-71
2024/02/19 03:17:50;;;;;;;0.45;0.45;;;;;;;3.71;100.00;100355.81;5064471;28;20070;-70
2024/02/19 03:20:18;;;;;;;0.40;0.40;;;;;;;3.58;100.00;100356.41;5068030;28;20027;-70
2024/02/19 03:22:44;;;;;;;0.40;0.40;;;;;;;3.53;100.00;100365.72;5068197;28;20054;-69
2024/02/19 03:25:10;;;;;;;0.40;0.40;;;;;;;3.55;100.00;100364.03;5068172;28;20085;-70
2024/02/19 03:27:36;;;;;;;0.50;0.50;;;;;;;3.53;100.00;100360.59;5067996;28;20108;-70
2024/02/19 03:30:01;;;;;;;0.47;0.47;;;;;;;3.51;100.00;100362.25;5067630;28;20047;-70
2024/02/19 03:32:27;;;;;;;0.40;0.40;;;;;;;3.53;100.00;100368.31;5049688;28;20049;-70
2024/02/19 03:34:52;;;;;;;0.50;0.50;;;;;;;3.57;100.00;100370.06;5049879;28;20021;-71
2024/02/19 03:37:17;;;;;;;0.40;0.40;;;;;;;3.59;100.00;100369.25;5067918;28;20104;-70
2024/02/19 03:39:44;;;;;;;0.50;0.50;;;;;;;3.65;100.00;100376.25;5067799;28;20485;-70
2024/02/19 03:42:09;;;;;;;0.40;0.40;;;;;;;3.68;100.00;100373.72;5049877;28;20206;-70
2024/02/19 03:44:35;;;;;;;0.40;0.40;;;;;;;3.64;100.00;100360.81;5067207;28;20028;-69
2024/02/19 03:47:00;;;;;;;0.50;0.50;;;;;;;3.71;100.00;100367.78;5067731;28;20036;-69
2024/02/19 03:49:25;;;;;;;0.40;0.40;;;;;;;3.71;100.00;100368.66;5067533;28;20040;-70
2024/02/19 03:51:51;;;;;;;0.40;0.40;;;;;;;3.73;100.00;100371.25;5049435;28;20025;-69
2024/02/19 03:54:17;;;;;;;0.40;0.40;;;;;;;3.72;100.00;100365.25;5067530;28;20028;-70
2024/02/19 03:56:42;;;;;;;0.40;0.40;;;;;;;3.76;100.00;100375.56;5067027;28;20044;-69
2024/02/19 03:59:08;;;;;;;0.40;0.40;;;;;;;3.77;100.00;100377.31;5066846;28;20048;-69
2024/02/19 04:01:33;;;;;;;0.40;0.40;;;;;;;3.71;100.00;100372.91;5067504;28;20055;-70
2024/02/19 04:03:59;;;;;;;0.40;0.40;;;;;;;3.69;100.00;100375.44;5049537;28;20370;-70
2024/02/19 04:06:24;;;;;;;0.50;0.50;;;;;;;3.68;100.00;100376.28;5067295;28;20025;-70
2024/02/19 04:08:49;;;;;;;0.50;0.50;;;;;;;3.66;100.00;100370.25;5049196;28;20462;-70
2024/02/19 04:11:18;;;;;;;0.40;0.40;;;;;;;3.59;100.00;100371.00;5067135;28;20027;-70
2024/02/19 04:13:43;;;;;;;0.40;0.40;;;;;;;3.51;100.00;100369.97;5067347;28;20025;-70
2024/02/19 04:16:11;;;;;;;0.50;0.50;;;;;;;3.46;100.00;100373.31;5066871;28;20090;-69
2024/02/19 04:18:36;;;;;;;0.45;0.45;;;;;;;3.47;100.00;100375.03;5066843;28;20048;-70
2024/02/19 04:21:02;;;;;;;0.40;0.40;;;;;;;3.49;100.00;100387.03;5048946;28;20031;-70
2024/02/19 04:23:27;;;;;;;0.40;0.40;;;;;;;3.45;100.00;100381.81;5067113;28;20021;-70
2024/02/19 04:25:53;;;;;;;0.43;0.43;;;;;;;3.49;100.00;100382.75;5066874;28;20017;-69
2024/02/19 04:28:18;;;;;;;0.40;0.40;;;;;;;3.45;100.00;100379.25;5067106;28;20108;-70
2024/02/19 04:30:43;;;;;;;0.50;0.50;;;;;;;3.44;100.00;100385.25;5047725;28;20021;-70
2024/02/19 04:33:09;;;;;;;0.50;0.50;;;;;;;3.40;100.00;100378.31;5066629;28;20029;-70
2024/02/19 04:35:35;;;;;;;0.50;0.50;;;;;;;3.36;100.00;100373.94;5066831;28;20037;-70
2024/02/19 04:38:00;;;;;;;0.40;0.40;;;;;;;3.30;100.00;100381.50;5066798;28;20081;-70
2024/02/19 04:40:25;;;;;;;0.50;0.50;;;;;;;3.24;100.00;100381.38;5066765;28;20021;-69
2024/02/19 04:42:51;;;;;;;0.50;0.50;;;;;;;3.19;100.00;100378.72;5048657;28;20029;-70
2024/02/19 04:45:16;;;;;;;0.40;0.40;;;;;;;3.16;100.00;100374.41;5066407;28;20029;-70
2024/02/19 04:47:42;;;;;;;0.50;0.50;;;;;;;3.14;100.00;100385.44;5066783;28;20060;-69
2024/02/19 04:50:08;;;;;;;0.50;0.50;;;;;;;3.07;100.00;100387.00;5066530;28;20017;-70
2024/02/19 04:52:33;;;;;;;0.50;0.50;;;;;;;3.07;100.00;100385.31;5066423;28;20021;-69
2024/02/19 04:54:59;;;;;;;0.40;0.40;;;;;;;3.02;100.00;100386.06;5048574;28;20021;-69
2024/02/19 04:57:24;;;;;;;0.40;0.40;;;;;;;3.02;100.00;100386.91;5066139;28;20058;-70
2024/02/19 04:59:50;;;;;;;0.40;0.40;;;;;;;2.94;100.00;100381.59;5066114;28;20025;-70
2024/02/19 05:02:15;;;;;;;0.40;0.40;;;;;;;2.92;100.00;100390.09;5048382;28;20025;-70
2024/02/19 05:04:40;;;;;;;0.50;0.50;;;;;;;2.90;100.00;100392.63;5048424;28;20021;-69
2024/02/19 05:07:06;;;;;;;0.40;0.40;;;;;;;2.87;100.00;100392.56;5048374;28;20389;-68
2024/02/19 05:09:31;;;;;;;0.40;0.40;;;;;;;2.83;100.00;100393.31;5066016;28;20075;-68
2024/02/19 05:11:56;;;;;;;0.50;0.50;;;;;;;2.79;100.00;100394.09;5065951;28;20047;-66
2024/02/19 05:14:22;;;;;;;0.50;0.50;;;;;;;2.77;100.00;100395.72;5066178;28;20154;-68
2024/02/19 05:16:47;;;;;;;0.40;0.40;;;;;;;2.76;100.00;100389.75;5066212;28;20045;-67
2024/02/19 05:19:13;;;;;;;0.40;0.40;;;;;;;2.70;100.00;100393.03;5065880;28;20040;-68
2024/02/19 05:21:41;;;;;;;0.50;0.50;;;;;;;2.64;100.00;100402.25;5065691;28;20029;-68
2024/02/19 05:24:08;;;;;;;0.40;0.40;;;;;;;2.68;100.00;100401.53;5065955;28;20032;-68
2024/02/19 05:26:34;;;;;;;0.40;0.40;;;;;;;2.70;100.00;100395.59;5047969;28;20025;-69
2024/02/19 05:29:00;;;;;;;0.50;0.50;;;;;;;2.69;100.00;100393.88;5065951;28;20025;-67
2024/02/19 05:31:33;;;;;;;0.40;0.40;;;;;;;2.74;100.00;100401.66;5047431;28;20029;-71
2024/02/19 05:33:59;;;;;;;0.43;0.43;;;;;;;2.77;100.00;100396.59;5065982;28;20029;-68
2024/02/19 05:36:25;;;;;;;0.50;0.50;;;;;;;2.79;100.00;100401.78;5047736;28;20025;-67
2024/02/19 05:38:50;;;;;;;0.40;0.40;;;;;;;2.77;100.00;100390.59;5065120;28;20344;-67
2024/02/19 05:41:15;;;;;;;0.47;0.47;;;;;;;2.81;100.00;100393.28;5065463;28;20080;-66
2024/02/19 05:43:43;;;;;;;0.50;0.50;;;;;;;2.83;100.00;100395.88;5065652;28;20374;-67
2024/02/19 05:46:09;;;;;;;0.50;0.50;;;;;;;2.81;100.00;100397.56;5065432;28;20107;-67
2024/02/19 05:48:34;;;;;;;0.50;0.50;;;;;;;2.82;100.00;100404.41;5065469;28;20044;-68
2024/02/19 05:51:03;;;;;;;0.40;0.40;;;;;;;2.81;100.00;100402.69;5047269;28;20071;-68
2024/02/19 05:53:29;;;;;;;0.40;0.40;;;;;;;2.79;100.00;100404.34;5065445;28;20039;-67
2024/02/19 05:55:55;;;;;;;0.50;0.50;;;;;;;2.80;100.00;100412.06;5047666;28;20056;-67
2024/02/19 05:58:20;;;;;;;0.50;0.50;;;;;;;2.80;100.00;100416.31;5064797;28;20119;-67
2024/02/19 06:00:45;;;;;;;0.40;0.40;;;;;;;2.75;100.00;100411.09;5046910;28;20473;-68
2024/02/19 06:03:11;;;;;;;0.40;0.40;;;;;;;2.78;100.00;100413.72;5047164;28;20051;-66
2024/02/19 06:05:36;;;;;;;0.45;0.45;;;;;;;2.78;100.00;100413.72;5065238;28;20025;-68
2024/02/19 06:08:02;;;;;;;0.40;0.40;;;;;;;2.73;100.00;100415.31;5047229;28;20036;-67
2024/02/19 06:10:36;;;;;;;0.40;0.40;;;;;;;2.72;100.00;100419.56;5047238;28;20017;-67
2024/02/19 06:13:01;;;;;;;0.50;0.50;;;;;;;2.66;100.00;100411.75;5047117;28;20048;-67
2024/02/19 06:15:27;;;;;;;0.40;0.40;;;;;;;2.68;100.00;100416.91;5047212;28;20036;-67
2024/02/19 06:17:53;;;;;;;0.50;0.50;;;;;;;2.68;100.00;100416.91;5047242;28;20020;-66
2024/02/19 06:20:22;;;;;;;0.50;0.50;;;;;;;2.50;100.00;100390.00;5065130;28;20025;-65
2024/02/19 06:22:47;;;;;;;0.40;0.40;;;;;;;2.60;100.00;100416.72;5046973;28;20032;-66
2024/02/19 06:25:15;;;;;;;0.47;0.47;;;;;;;2.58;100.00;100415.81;5065014;28;20029;-66
2024/02/19 06:27:41;;;;;;;0.45;0.45;;;;;;;2.55;100.00;100418.28;5065036;28;20229;-66
2024/02/19 06:30:07;;;;;;;0.50;0.50;;;;;;;2.42;100.00;100394.94;5064670;28;20052;-65
2024/02/19 06:32:32;;;;;;;0.50;0.50;;;;;;;2.50;100.00;100419.88;5046961;28;20028;-64
2024/02/19 06:34:57;;;;;;;0.40;0.40;;;;;;;2.45;100.00;100419.75;5064779;28;20036;-65
2024/02/19 06:37:23;;;;;;;0.50;0.50;;;;;;;2.41;100.00;100421.38;5046779;28;20017;-66
2024/02/19 06:39:48;;;;;;;0.50;0.50;;;;;;;2.34;100.00;100417.81;5064839;28;20143;-66
2024/02/19 06:42:14;;;;;;;0.50;0.50;;;;;;;2.33;100.00;100425.44;5064643;28;20029;-67
2024/02/19 06:44:39;;;;;;;0.50;0.50;;;;;;;2.28;100.00;100414.22;5064859;28;20028;-65
2024/02/19 06:47:05;;;;;;;0.50;0.50;;;;;;;2.31;100.00;100427.97;5046740;28;20461;-65
2024/02/19 06:49:30;;;;;;;0.40;0.40;;;;;;;2.32;100.00;100423.69;5064312;28;20040;-66
2024/02/19 06:51:56;;;;;;;0.50;0.50;;;;;;;2.29;100.00;100426.19;5046151;28;20028;-66
2024/02/19 06:54:21;;;;;;;0.50;0.50;;;;;;;2.31;100.00;100437.34;5067407;28;20436;-66
2024/02/19 06:56:46;;;;;;;0.45;0.45;;;;;;;2.25;100.00;100426.94;5050632;28;20075;-66
2024/02/19 06:59:12;;;;;;;0.50;0.50;;;;;;;2.26;100.00;100444.91;5068703;28;20055;-66
2024/02/19 07:01:40;;;;;;;0.50;0.50;;;;;;;2.22;100.00;100441.41;5050505;28;20052;-66
2024/02/19 07:04:05;;;;;;;0.50;0.50;;;;;;;2.23;100.00;100432.91;5068616;28;20032;-66
2024/02/19 07:06:31;;;;;;;0.50;0.50;;;;;;;2.28;100.00;100442.41;5068670;28;20020;-67
2024/02/19 07:08:57;;;;;;;0.40;0.40;;;;;;;2.26;100.00;100433.78;5068583;28;20074;-66
2024/02/19 07:11:22;;;;;;;0.40;0.40;;;;;;;2.26;100.00;100439.78;5068298;28;20048;-66
2024/02/19 07:13:50;;;;;;;0.50;0.50;;;;;;;2.30;100.00;100441.59;5050409;28;20066;-67
2024/02/19 07:16:16;;;;;;;0.50;0.50;;;;;;;2.30;100.00;100449.28;5068463;28;20032;-67
2024/02/19 07:18:41;;;;;;;0.43;0.43;;;;;;;2.22;100.00;100451.66;5050273;28;20017;-66
2024/02/19 07:21:07;;;;;;;0.40;0.40;;;;;;;2.20;100.00;100450.75;5050229;28;20021;-67
2024/02/19 07:23:32;;;;;;;0.40;0.40;;;;;;;2.15;100.00;100460.00;5050438;28;20067;-66
2024/02/19 07:25:57;;;;;;;0.50;0.50;;;;;;;2.12;100.00;100462.47;5050456;28;20021;-66
2024/02/19 07:28:23;;;;;;;0.40;0.40;;;;;;;2.12;100.00;100472.72;5068270;28;20032;-66
2024/02/19 07:30:48;;;;;;;0.40;0.40;;;;;;;2.07;100.00;100462.34;5068117;28;20053;-66
2024/02/19 07:33:14;;;;;;;0.40;0.40;;;;;;;2.09;100.00;100470.09;5067989;28;20112;-66
2024/02/19 07:35:39;;;;;;;0.50;0.50;;;;;;;2.09;100.00;100476.06;5068319;28;20017;-66
2024/02/19 07:38:05;;;;;;;0.40;0.40;;;;;;;2.02;100.00;100475.84;5068113;28;20021;-66
2024/02/19 07:40:30;;;;;;;0.50;0.50;;;;;;;1.90;100.00;100468.69;5050053;28;20044;-66
2024/02/19 07:42:56;;;;;;;0.50;0.50;;;;;;;1.89;100.00;100467.81;5068007;28;20037;-66
2024/02/19 07:45:21;;;;;;;0.40;0.40;;;;;;;1.90;100.00;100472.09;5067546;28;20029;-66
2024/02/19 07:47:46;;;;;;;0.50;0.50;;;;;;;1.92;100.00;100483.28;5067882;28;20028;-65
2024/02/19 07:50:12;;;;;;;0.47;0.47;;;;;;;1.91;100.00;100486.66;5067767;28;20090;-65
2024/02/19 07:52:37;;;;;;;0.50;0.50;;;;;;;1.93;100.00;100486.72;5049798;28;20025;-66
2024/02/19 07:55:05;;;;;;;0.50;0.50;;;;;;;1.98;100.00;100492.84;5049677;28;20434;-65
2024/02/19 07:57:30;;;;;;;0.50;0.50;;;;;;;1.91;100.00;100478.09;5067315;28;20179;-66
2024/02/19 07:59:56;;;;;;;0.50;0.50;;;;;;;1.87;100.00;100474.59;5067305;28;20028;-67
2024/02/19 08:02:21;;;;;;;0.50;0.50;;;;;;;1.92;100.00;100490.06;5067574;28;20043;-66
2024/02/19 08:04:46;;;;;;;0.50;0.50;;;;;;;1.94;100.00;100498.69;5048305;28;20462;-66
2024/02/19 08:07:12;;;;;;;0.50;0.50;;;;;;;1.90;100.00;100500.28;5067469;28;20036;-65
2024/02/19 08:09:37;;;;;;;0.40;0.40;;;;;;;1.75;100.00;100497.28;5067516;28;20020;-65
2024/02/19 08:12:03;;;;;;;0.43;0.43;;;;;;;1.67;100.00;100489.38;5049408;28;20017;-66
2024/02/19 08:14:29;;;;;;;0.50;0.50;;;;;;;1.71;100.00;100504.03;5067364;28;20416;-66
2024/02/19 08:16:54;;;;;;;0.45;0.45;;;;;;;1.75;100.00;100507.50;5067444;28;20480;-66
2024/02/19 08:19:19;;;;;;;0.50;0.50;;;;;;;1.77;100.00;100500.75;5067243;28;20029;-66
2024/02/19 08:21:47;;;;;;;0.50;0.50;;;;;;;1.69;100.00;100500.53;5067205;28;20021;-66
2024/02/19 08:24:14;;;;;;;0.50;0.50;;;;;;;1.72;100.00;100505.75;5067220;28;20025;-66
2024/02/19 08:26:39;;;;;;;0.50;0.50;;;;;;;1.68;100.00;100498.78;5049193;28;20040;-66
2024/02/19 08:29:05;;;;;;;0.50;0.50;;;;;;;1.71;100.00;100504.88;5066954;28;20016;-67
2024/02/19 08:31:31;;;;;;;0.50;0.50;;;;;;;1.75;100.00;100508.41;5066678;28;20032;-66
2024/02/19 08:33:57;;;;;;;0.40;0.40;;;;;;;1.76;100.00;100497.31;5067053;28;20021;-66
2024/02/19 08:36:23;;;;;;;0.50;0.50;;;;;;;1.80;100.00;100511.09;5067090;28;20052;-66
2024/02/19 08:38:55;;;;;;;0.50;0.50;;;;;;;1.86;100.00;100521.50;5066890;28;20025;-66
2024/02/19 08:41:21;;;;;;;0.50;0.50;;;;;;;1.87;100.00;100512.16;5066627;28;20029;-65
2024/02/19 08:43:47;;;;;;;0.50;0.50;;;;;;;1.87;100.00;100510.44;5048923;28;20463;-67
2024/02/19 08:46:13;;;;;;;0.50;0.50;;;;;;;1.90;100.00;100518.19;5048609;28;20052;-67
2024/02/19 08:48:39;;;;;;;0.50;0.50;;;;;;;1.87;100.00;100501.91;5048670;28;20029;-66
2024/02/19 08:51:04;;;;;;;0.47;0.47;;;;;;;1.85;100.00;100500.16;5048746;28;20059;-66
2024/02/19 08:53:30;;;;;;;0.50;0.50;;;;;;;1.89;100.00;100506.22;5048574;28;20477;-66
2024/02/19 08:55:55;;;;;;;0.40;0.40;;;;;;;1.89;100.00;100505.34;5066653;28;20021;-67
2024/02/19 08:58:21;;;;;;;0.60;0.60;;;;;;;1.95;100.00;100510.69;5048322;28;20048;-66
2024/02/19 09:00:46;;;;;;;0.40;0.40;;;;;;;1.90;100.00;100502.84;5066275;28;20033;-66
2024/02/19 09:03:11;;;;;;;0.50;0.50;;;;;;;1.91;100.00;100512.28;5066329;28;20354;-66
2024/02/19 09:05:37;;;;;;;0.47;0.47;;;;;;;1.92;100.00;100506.31;5048453;28;20040;-66
2024/02/19 09:08:06;;;;;;;0.40;0.40;;;;;;;1.87;100.00;100507.88;5066299;28;20056;-66
2024/02/19 09:10:31;;;;;;;0.50;0.50;;;;;;;1.79;100.00;100506.81;5066147;28;20037;-66
2024/02/19 09:12:57;;;;;;;0.40;0.40;;;;;;;1.78;100.00;100516.16;5048102;28;20024;-67
2024/02/19 09:15:23;;;;;;;0.40;0.40;;;;;;;1.76;100.00;100511.84;5065913;28;20021;-65
2024/02/19 09:17:48;;;;;;;0.40;0.40;;;;;;;1.76;100.00;100514.41;5047957;28;20158;-66
2024/02/19 09:20:14;;;;;;;0.50;0.50;;;;;;;1.79;100.00;100515.31;5065849;28;20100;-65
2024/02/19 09:22:43;;;;;;;0.40;0.40;;;;;;;1.85;100.00;100512.09;5065913;28;20037;-66
2024/02/19 09:25:08;;;;;;;0.50;0.50;;;;;;;1.93;100.00;100512.31;5065934;28;20051;-65
2024/02/19 09:27:35;;;;;;;0.50;0.50;;;;;;;1.98;100.00;100518.44;5048010;28;20029;-66
2024/02/19 09:30:01;;;;;;;0.50;0.50;;;;;;;2.07;100.00;100523.81;5065549;28;20025;-65
2024/02/19 09:32:26;;;;;;;0.43;0.43;;;;;;;2.09;100.00;100514.47;5065683;28;20561;-66
2024/02/19 09:34:52;;;;;;;0.50;0.50;;;;;;;2.08;100.00;100525.56;5065751;28;20103;-66
2024/02/19 09:37:17;;;;;;;0.50;0.50;;;;;;;2.09;100.00;100506.78;5047981;28;20051;-66
2024/02/19 09:39:42;;;;;;;0.40;0.40;;;;;;;2.13;100.00;100505.19;5047857;28;20021;-66
2024/02/19 09:42:08;;;;;;;0.50;0.50;;;;;;;2.19;100.00;100504.50;5065485;28;20036;-67
2024/02/19 09:44:35;;;;;;;0.50;0.50;;;;;;;2.21;100.00;100513.97;5065581;28;20028;-66
2024/02/19 09:47:02;;;;;;;0.45;0.45;;;;;;;2.26;100.00;100518.34;5047811;28;20024;-66
2024/02/19 09:49:30;;;;;;;0.50;0.50;;;;;;;2.22;100.00;100513.13;5047466;28;20018;-66
2024/02/19 09:51:59;;;;;;;0.50;0.50;;;;;;;2.22;100.00;100508.00;5065242;28;20024;-66
2024/02/19 09:54:27;;;;;;;0.40;0.40;;;;;;;2.25;100.00;100511.47;5065430;28;20099;-66
2024/02/19 09:56:54;;;;;;;0.50;0.50;;;;;;;2.25;100.00;100509.81;5047354;28;20024;-66
2024/02/19 09:59:20;;;;;;;0.40;0.40;;;;;;;2.19;100.00;100499.38;5047483;28;20051;-66
2024/02/19 10:01:45;;;;;;;0.40;0.40;;;;;;;2.26;100.00;100508.09;5047213;28;20032;-66
2024/02/19 10:04:14;;;;;;;0.40;0.40;;;;;;;2.31;100.00;100512.53;5047282;28;20032;-67
2024/02/19 10:06:41;;;;;;;0.50;0.50;;;;;;;2.36;100.00;100517.78;5047392;28;20024;-67
2024/02/19 10:09:11;;;;;;;0.50;0.50;;;;;;;2.33;100.00;100517.69;5065340;28;20079;-67
2024/02/19 10:11:36;;;;;;;0.50;0.50;;;;;;;2.33;100.00;100507.44;5047251;28;20092;-67
2024/02/19 10:14:06;;;;;;;0.50;0.50;;;;;;;2.30;100.00;100512.47;5065225;28;20032;-66
2024/02/19 10:16:31;;;;;;;0.50;0.50;;;;;;;2.31;100.00;100506.53;5065097;28;20025;-66
2024/02/19 10:19:07;;;;;;;0.50;0.50;;;;;;;2.33;100.00;100502.31;5047179;28;20108;-66
2024/02/19 10:21:33;;;;;;;0.50;0.50;;;;;;;2.42;100.00;100512.81;5065096;28;20059;-66
2024/02/19 10:23:59;;;;;;;0.50;0.50;;;;;;;2.44;100.00;100513.72;5065268;28;20068;-67
2024/02/19 10:26:24;;;;;;;0.50;0.50;;;;;;;2.52;100.00;100515.63;5047276;28;20500;-65
2024/02/19 10:28:54;;;;;;;0.40;0.40;;;;;;;2.52;100.00;100507.94;5064375;28;20025;-66
2024/02/19 10:31:20;;;;;;;0.50;0.50;;;;;;;2.59;100.00;100515.81;5064944;28;20029;-67
2024/02/19 10:33:45;;;;;;;0.43;0.43;;;;;;;2.59;100.00;100503.00;5065047;28;20080;-67
2024/02/19 10:36:15;;;;;;;0.50;0.50;;;;;;;2.70;100.00;100508.41;5064995;28;20020;-67
2024/02/19 10:38:41;;;;;;;0.50;0.50;;;;;;;2.78;100.00;100511.16;5047041;28;20029;-67
2024/02/19 10:41:07;;;;;;;0.50;0.50;;;;;;;2.77;100.00;100498.28;5064971;28;20107;-66
2024/02/19 10:43:32;;;;;;;0.50;0.50;;;;;;;2.91;100.00;100514.91;5047063;28;20079;-67
2024/02/19 10:45:58;;;;;;;0.50;0.50;;;;;;;2.88;100.00;100514.81;5064765;28;20017;-66
2024/02/19 10:48:25;;;;;;;0.50;0.50;;;;;;;2.89;100.00;100511.41;5065086;28;20035;-67
2024/02/19 10:50:51;;;;;;;0.40;0.40;;;;;;;2.86;100.00;100508.78;5046920;28;20047;-67
2024/02/19 10:53:18;;;;;;;0.40;0.40;;;;;;;2.87;100.00;100502.84;5047063;28;20111;-66
2024/02/19 10:55:45;;;;;;;0.50;0.50;;;;;;;2.92;100.00;100508.97;5046906;28;20021;-67
2024/02/19 10:58:15;;;;;;;0.50;0.50;;;;;;;2.94;100.00;100509.00;5046706;28;20045;-67
2024/02/19 11:00:42;;;;;;;0.43;0.43;;;;;;;3.00;100.00;100498.88;5046644;28;20026;-66
2024/02/19 11:03:09;;;;;;;0.50;0.50;;;;;;;3.09;100.00;100499.09;5046944;28;20032;-69
2024/02/19 11:05:41;;;;;;;0.50;0.50;;;;;;;2.99;100.00;100499.69;5046899;28;20043;-68
2024/02/19 11:08:23;;;;;;;0.60;0.60;;;;;;;2.84;100.00;100472.00;5046807;28;20021;-67
2024/02/19 11:10:50;;;;;;;0.60;0.60;;;;;;;2.94;100.00;100491.88;5064764;28;20385;-69
2024/02/19 11:13:18;;;;;;;0.50;0.50;;;;;;;3.00;100.00;100488.63;5064777;28;20021;-69
2024/02/19 11:15:46;;;;;;;0.50;0.50;;;;;;;3.13;100.00;100492.31;5064584;28;20068;-68
2024/02/19 11:18:19;;;;;;;0.40;0.40;;;;;;;3.17;100.00;100488.13;5064775;28;20024;-69